Date,TemperatureHighF,TemperatureAvgF,TemperatureLowF,DewpointHighF,DewpointAvgF,DewpointLowF,HumidityHigh,HumidityAvg,HumidityLow,PressureMaxIn,PressureMinIn,WindSpeedMaxMPH,WindSpeedAvgMPH,GustSpeedMaxMPH,PrecipitationSumIn
2013-12-1,50,47,41,48,45,35,96,92,76,30.09,29.77,11,6,19,0.27
2013-12-2,46,39,33,38,32,19,89,75,53,30.14,29.83,10,2,26,0.02
2013-12-3,37,34,31,22,20,16,60,55,45,30.37,30.14,7,3,25,0.01
2013-12-4,38,32,28,24,19,16,73,57,43,30.41,30.35,4,1,11,0.00
2013-12-5,35,30,28,25,22,17,80,70,63,30.38,30.25,3,0,7,0.00
2013-12-6,29,26,23,19,13,9,67,57,47,30.34,30.24,8,3,19,0.00
2013-12-7,28,24,21,13,7,-100,62,51,39,30.46,30.33,6,2,19,0.00
2013-12-8,34,28,24,23,19,11,80,68,54,30.60,30.45,5,2,9,0.00
2013-12-9,35,32,31,31,26,22,87,77,69,30.61,30.51,9,4,15,0.00
2013-12-10,38,36,34,34,32,30,88,86,82,30.52,30.46,7,2,11,0.00
2013-12-11,41,37,34,35,32,30,92,82,69,30.46,30.20,3,0,5,0.00
2013-12-12,44,41,35,41,36,32,92,85,75,30.19,30.02,18,6,26,0.03
2013-12-13,46,44,43,45,42,41,96,94,92,30.45,30.15,8,3,12,0.04
2013-12-14,47,45,44,45,42,-100,96,93,88,30.46,30.34,9,3,14,0.01
2013-12-15,50,46,42,47,44,40,95,91,85,30.47,30.34,10,4,14,0.03
2013-12-16,49,42,38,44,40,37,100,92,80,30.52,30.30,5,1,9,0.01
2013-12-17,44,41,37,42,39,36,97,95,92,30.31,30.12,11,4,16,0.01
2013-12-18,45,41,34,42,36,25,91,83,58,30.22,30.08,9,2,18,0.04
2013-12-19,38,36,33,31,24,20,84,62,49,30.40,30.23,4,1,15,0.03
2013-12-20,38,35,32,37,34,30,96,94,86,30.24,29.74,12,4,22,0.20
2013-12-21,41,38,35,40,36,-100,97,95,96,30.20,29.90,1,0,3,0.09
2013-12-22,46,42,40,45,41,39,97,97,97,30.32,30.19,2,0,8,0.36
2013-12-23,50,46,40,47,44,38,97,91,75,30.54,30.15,11,4,20,0.27
2013-12-24,48,42,35,42,39,34,96,90,74,30.65,30.53,6,1,9,0.01
2013-12-25,42,39,35,40,37,34,97,92,81,30.58,30.44,4,0,6,0.00
2013-12-26,46,41,36,42,38,35,96,91,82,30.43,30.22,6,1,10,0.01
2013-12-27,48,42,37,47,40,36,97,95,91,30.37,30.11,10,2,16,0.18
2013-12-28,44,40,38,43,38,-100,97,95,94,30.55,30.37,2,0,5,0.01
2013-12-29,43,41,37,42,40,36,97,96,93,30.51,30.35,8,2,11,0.01
2013-12-30,45,42,40,44,41,39,97,95,93,30.35,30.14,8,2,12,0.02
2013-12-31,45,44,43,44,43,42,97,96,95,30.41,30.20,7,3,11,0.01